createdAt,value
2022-10-13T00:01:13.859Z,98171.75
2022-10-13T00:03:46.094Z,98172.44
2022-10-13T00:06:16.159Z,98178.59
2022-10-13T00:08:44.633Z,98174.97
2022-10-13T00:11:16.940Z,98176.63
2022-10-13T00:13:46.003Z,98175.63
2022-10-13T00:16:16.957Z,98174.47
2022-10-13T00:18:45.978Z,98174.47
2022-10-13T00:21:17.699Z,98165.47
2022-10-13T00:23:45.975Z,98168.81
2022-10-13T00:26:17.771Z,98163.47
2022-10-13T00:28:51.283Z,98165.16
2022-10-13T00:31:22.591Z,98157.81
2022-10-13T00:33:50.960Z,98148.31
2022-10-13T00:36:19.769Z,98151.34
2022-10-13T00:38:48.955Z,98154.00
2022-10-13T00:41:18.850Z,98148.69
2022-10-13T00:43:58.244Z,98153.16
2022-10-13T00:46:30.480Z,98150.34
2022-10-13T00:49:01.754Z,98148.53
2022-10-13T00:51:34.891Z,98148.53
2022-10-13T00:54:05.332Z,98152.69
2022-10-13T00:56:36.753Z,98157.88
2022-10-13T00:59:06.919Z,98148.84
2022-10-13T01:01:35.455Z,98156.56
2022-10-13T01:04:04.042Z,98148.56
2022-10-13T01:06:32.436Z,98157.25
2022-10-13T01:09:00.635Z,98154.59
2022-10-13T01:11:52.686Z,98155.59
2022-10-13T01:14:32.555Z,98159.09
2022-10-13T01:17:14.490Z,98154.75
2022-10-13T01:20:07.773Z,98162.75
2022-10-13T01:23:00.477Z,98164.56
2022-10-13T01:25:50.776Z,98154.06
2022-10-13T01:28:49.152Z,98146.19
2022-10-13T01:31:23.797Z,98147.19
2022-10-13T01:33:58.757Z,98150.88
2022-10-13T01:36:34.303Z,98148.19
2022-10-13T01:39:09.188Z,98152.69
2022-10-13T01:41:40.111Z,98152.69
2022-10-13T01:44:16.256Z,98143.84
2022-10-13T01:46:48.615Z,98132.50
2022-10-13T01:49:21.236Z,98130.97
2022-10-13T01:51:50.773Z,98132.84
2022-10-13T01:54:19.018Z,98135.66
2022-10-13T01:56:54.288Z,98135.81
2022-10-13T01:59:24.399Z,98128.94
2022-10-13T02:02:04.923Z,98134.44
2022-10-13T02:04:47.154Z,98135.59
2022-10-13T02:07:21.892Z,98141.09
2022-10-13T02:09:59.313Z,98143.78
2022-10-13T02:12:33.946Z,98140.44
2022-10-13T02:15:04.468Z,98144.09
2022-10-13T02:17:34.076Z,98140.59
2022-10-13T02:20:02.426Z,98149.41
2022-10-13T02:22:37.581Z,98143.28
2022-10-13T02:25:07.099Z,98145.09
2022-10-13T02:27:35.367Z,98149.59
2022-10-13T02:30:03.645Z,98144.25
2022-10-13T02:32:33.330Z,98141.72
2022-10-13T02:35:01.539Z,98135.75
2022-10-13T02:37:29.710Z,98135.06
2022-10-13T02:39:57.951Z,98141.25
2022-10-13T02:42:26.228Z,98131.69
2022-10-13T02:44:54.438Z,98133.56
2022-10-13T02:47:22.658Z,98135.53
2022-10-13T02:49:52.230Z,98133.03
2022-10-13T02:52:20.668Z,98137.66
2022-10-13T02:54:49.198Z,98139.69
2022-10-13T02:57:18.567Z,98137.97
2022-10-13T02:59:46.806Z,98131.84
2022-10-13T03:02:15.203Z,98139.00
2022-10-13T03:04:43.398Z,98142.50
2022-10-13T03:07:13.292Z,98138.44
2022-10-13T03:09:41.506Z,98132.47
2022-10-13T03:12:09.792Z,98136.09
2022-10-13T03:14:38.038Z,98131.94
2022-10-13T03:17:08.815Z,98132.09
2022-10-13T03:19:40.710Z,98126.91
2022-10-13T03:22:09.192Z,98131.41
2022-10-13T03:24:38.787Z,98124.25
2022-10-13T03:27:07.008Z,98125.25
2022-10-13T03:29:35.213Z,98112.09
2022-10-13T03:32:03.478Z,98122.91
2022-10-13T03:34:31.941Z,98114.06
2022-10-13T03:37:00.174Z,98114.22
2022-10-13T03:39:28.598Z,98117.03
2022-10-13T03:41:58.203Z,98124.19
2022-10-13T03:44:26.506Z,98116.38
2022-10-13T03:46:54.757Z,98115.69
2022-10-13T03:49:23.025Z,98115.00
2022-10-13T03:51:51.519Z,98112.50
2022-10-13T03:54:19.811Z,98109.97
2022-10-13T03:56:48.136Z,98107.63
2022-10-13T03:59:18.630Z,98103.59
2022-10-13T04:01:46.972Z,98116.25
2022-10-13T04:04:15.355Z,98112.22
2022-10-13T04:06:43.924Z,98109.03
2022-10-13T04:09:12.158Z,98123.66
2022-10-13T04:11:40.395Z,98128.44
2022-10-13T04:14:08.587Z,98131.59
2022-10-13T04:16:39.731Z,98135.53
2022-10-13T04:19:08.179Z,98136.81
2022-10-13T04:21:36.935Z,98137.94
2022-10-13T04:24:05.934Z,98133.78
2022-10-13T04:26:36.851Z,98133.13
2022-10-13T04:29:06.991Z,98133.41
2022-10-13T04:31:37.458Z,98138.19
2022-10-13T04:34:05.924Z,98132.34
2022-10-13T04:36:34.179Z,98136.16
2022-10-13T04:39:02.450Z,98132.13
2022-10-13T04:41:30.651Z,98124.44
2022-10-13T04:43:59.138Z,98127.41
2022-10-13T04:46:28.912Z,98132.19
2022-10-13T04:48:58.762Z,98132.50
2022-10-13T04:51:27.955Z,98125.66
2022-10-13T04:53:57.023Z,98125.13
2022-10-13T04:56:25.926Z,98134.56
2022-10-13T04:58:54.323Z,98131.19
2022-10-13T05:01:25.470Z,98136.97
2022-10-13T05:03:54.219Z,98126.78
2022-10-13T05:06:26.011Z,98128.91
2022-10-13T05:08:54.663Z,98121.22
2022-10-13T05:11:24.223Z,98125.00
2022-10-13T05:13:52.553Z,98128.81
2022-10-13T05:16:22.877Z,98120.44
2022-10-13T05:18:53.221Z,98127.75
2022-10-13T05:21:24.872Z,98126.91
2022-10-13T05:23:55.721Z,98122.72
2022-10-13T05:26:28.672Z,98123.69
2022-10-13T05:28:57.168Z,98132.66
2022-10-13T05:31:28.076Z,98133.66
2022-10-13T05:33:57.181Z,98128.50
2022-10-13T05:36:30.117Z,98137.44
2022-10-13T05:39:01.196Z,98133.09
2022-10-13T05:41:30.727Z,98126.94
2022-10-13T05:44:04.082Z,98143.75
2022-10-13T05:46:32.726Z,98139.44
2022-10-13T05:49:00.956Z,98140.53
2022-10-13T05:51:35.271Z,98137.06
2022-10-13T05:54:08.800Z,98137.06
2022-10-13T05:56:41.058Z,98139.72
2022-10-13T05:59:13.947Z,98139.56
2022-10-13T06:01:43.834Z,98140.38
2022-10-13T06:04:16.604Z,98142.91
2022-10-13T06:06:46.560Z,98138.44
2022-10-13T06:09:14.870Z,98130.59
2022-10-13T06:11:43.143Z,98132.66
2022-10-13T06:14:11.394Z,98140.34
2022-10-13T06:16:39.653Z,98134.72
2022-10-13T06:19:07.913Z,98136.41
2022-10-13T06:21:36.812Z,98131.78
2022-10-13T06:24:07.136Z,98128.97
2022-10-13T06:26:35.408Z,98141.81
2022-10-13T06:29:03.736Z,98137.03
2022-10-13T06:31:31.991Z,98140.22
2022-10-13T06:34:00.578Z,98139.94
2022-10-13T06:36:28.851Z,98124.50
2022-10-13T06:38:57.055Z,98133.03
2022-10-13T06:41:26.763Z,98127.38
2022-10-13T06:43:54.999Z,98124.28
2022-10-13T06:46:23.243Z,98129.28
2022-10-13T06:48:52.210Z,98139.47
2022-10-13T06:51:20.643Z,98134.72
2022-10-13T06:53:48.936Z,98140.41
2022-10-13T06:56:17.205Z,98135.59
2022-10-13T06:58:46.971Z,98137.97
2022-10-13T07:01:15.283Z,98139.50
2022-10-13T07:03:44.289Z,98141.88
2022-10-13T07:06:12.563Z,98140.72
2022-10-13T07:08:40.811Z,98141.09
2022-10-13T07:11:15.931Z,98146.94
2022-10-13T07:13:47.107Z,98146.47
2022-10-13T07:16:18.192Z,98132.16
2022-10-13T07:18:49.143Z,98136.38
2022-10-13T07:21:17.448Z,98128.22
2022-10-13T07:23:45.885Z,98130.59
2022-10-13T07:26:16.704Z,98129.47
2022-10-13T07:28:46.901Z,98131.81
2022-10-13T07:31:17.966Z,98136.69
2022-10-13T07:33:48.618Z,98124.84
2022-10-13T07:36:17.113Z,98124.41
2022-10-13T07:38:45.712Z,98122.25
2022-10-13T07:41:14.891Z,98125.47
2022-10-13T07:43:43.165Z,98121.47
2022-10-13T07:46:14.953Z,98123.84
2022-10-13T07:48:43.373Z,98111.88
2022-10-13T07:51:14.114Z,98116.88
2022-10-13T07:53:44.140Z,98116.56
2022-10-13T07:56:14.773Z,98114.44
2022-10-13T07:58:45.549Z,98116.63
2022-10-13T08:01:16.079Z,98118.97
2022-10-13T08:03:48.968Z,98116.81
2022-10-13T08:06:19.466Z,98117.19
2022-10-13T08:08:47.765Z,98111.38
2022-10-13T08:11:17.737Z,98119.91
2022-10-13T08:13:49.916Z,98107.06
2022-10-13T08:16:20.134Z,98109.09
2022-10-13T08:18:48.621Z,98097.09
2022-10-13T08:24:08.715Z,98101.31
2022-10-13T08:26:37.132Z,98104.50
2022-10-13T08:29:22.870Z,98095.88
2022-10-13T08:31:55.054Z,98105.91
2022-10-13T08:34:24.204Z,98094.75
2022-10-13T08:36:54.582Z,98096.94
2022-10-13T08:39:24.217Z,98086.47
2022-10-13T08:41:52.774Z,98085.13
2022-10-13T08:47:30.804Z,98087.47
2022-10-13T08:50:04.584Z,98084.31
2022-10-13T08:52:50.718Z,98082.81
2022-10-13T08:55:34.546Z,98086.81
2022-10-13T08:58:07.841Z,98080.16
2022-10-13T09:00:36.090Z,98083.00
2022-10-13T09:03:22.383Z,98077.16
2022-10-13T09:06:11.593Z,98081.16
2022-10-13T09:08:45.104Z,98076.16
2022-10-13T09:11:14.283Z,98072.16
2022-10-13T09:13:43.479Z,98075.97
2022-10-13T09:16:11.851Z,98084.38
2022-10-13T09:18:41.453Z,98084.53
2022-10-13T09:21:21.824Z,98082.19
2022-10-13T09:23:52.041Z,98083.53
2022-10-13T09:26:24.425Z,98088.22
2022-10-13T09:28:53.864Z,98087.03
2022-10-13T09:31:27.850Z,98088.19
2022-10-13T09:34:03.646Z,98092.00
2022-10-13T09:36:32.049Z,98087.00
2022-10-13T09:39:14.137Z,98088.31
2022-10-13T09:41:44.085Z,98086.13
2022-10-13T09:44:16.055Z,98081.47
2022-10-13T09:46:54.150Z,98088.13
2022-10-13T09:49:40.747Z,98078.94
2022-10-13T09:52:18.522Z,98077.78
2022-10-13T09:54:51.156Z,98075.41
2022-10-13T09:57:30.018Z,98066.22
2022-10-13T10:00:11.505Z,98063.84
2022-10-13T10:02:46.909Z,98058.97
2022-10-13T10:05:27.049Z,98051.25
2022-10-13T10:07:58.044Z,98058.59
2022-10-13T10:10:34.251Z,98057.13
2022-10-13T10:13:03.395Z,98059.09
2022-10-13T10:15:52.072Z,98057.56
2022-10-13T10:18:31.288Z,98051.50
2022-10-13T10:21:10.829Z,98044.44
2022-10-13T10:23:48.151Z,98044.56
2022-10-13T10:26:24.272Z,98045.69
2022-10-13T10:29:17.225Z,98039.63
2022-10-13T10:32:03.379Z,98045.31
2022-10-13T10:34:39.418Z,98035.91
2022-10-13T10:37:22.714Z,98028.97
2022-10-13T10:40:06.790Z,98028.81
2022-10-13T10:43:04.629Z,98030.13
2022-10-13T10:45:38.830Z,98040.66
2022-10-13T10:48:21.279Z,98036.78
2022-10-13T10:50:51.317Z,98036.44
2022-10-13T10:53:30.739Z,98032.56
2022-10-13T10:56:07.414Z,98027.03
2022-10-13T10:58:45.993Z,98040.91
2022-10-13T11:01:31.863Z,98027.31
2022-10-13T11:04:32.449Z,98021.78
2022-10-13T11:07:00.882Z,98007.19
2022-10-13T11:10:17.512Z,98004.19
2022-10-13T11:13:22.300Z,97998.47
2022-10-13T11:15:50.938Z,97996.44
2022-10-13T11:19:24.570Z,97997.72
2022-10-13T11:22:25.185Z,97991.34
2022-10-13T11:25:37.299Z,97985.63
2022-10-13T11:28:49.000Z,97987.13
2022-10-13T11:31:35.998Z,97989.63
2022-10-13T11:34:05.305Z,97988.06
2022-10-13T11:36:58.138Z,97979.84
2022-10-13T11:40:16.429Z,97980.31
2022-10-13T11:43:19.477Z,97967.53
2022-10-13T11:46:12.054Z,97969.66
2022-10-13T11:49:22.468Z,97952.84
2022-10-13T11:52:25.523Z,97947.13
2022-10-13T11:55:01.969Z,97937.13
2022-10-13T11:57:32.879Z,97938.88
2022-10-13T12:00:01.191Z,97932.56
2022-10-13T12:02:29.820Z,97932.00
2022-10-13T12:05:05.545Z,97925.00
2022-10-13T12:07:37.514Z,97921.38
2022-10-13T12:10:09.995Z,97916.13
2022-10-13T12:12:47.245Z,97915.09
2022-10-13T12:15:33.829Z,97912.47
2022-10-13T12:18:02.497Z,97919.78
2022-10-13T12:20:33.503Z,97908.47
2022-10-13T12:23:01.939Z,97909.41
2022-10-13T12:25:33.655Z,97912.72
2022-10-13T12:28:04.014Z,97912.47
2022-10-13T12:30:36.293Z,97912.53
2022-10-13T12:33:20.518Z,97914.63
2022-10-13T12:35:48.739Z,97902.94
2022-10-13T12:38:20.831Z,97906.66
2022-10-13T12:40:51.145Z,97908.78
2022-10-13T12:43:26.197Z,97907.75
2022-10-13T12:45:54.719Z,97907.75
2022-10-13T12:48:34.341Z,97898.03
2022-10-13T12:51:17.825Z,97902.75
2022-10-13T12:53:47.437Z,97893.69
2022-10-13T12:56:29.708Z,97886.25
2022-10-13T12:59:00.193Z,97880.69
2022-10-13T13:01:33.759Z,97878.00
2022-10-13T13:04:17.371Z,97880.88
2022-10-13T13:06:55.693Z,97867.91
2022-10-13T13:09:29.692Z,97866.88
2022-10-13T13:12:24.554Z,97874.38
2022-10-13T13:14:55.747Z,97877.31
2022-10-13T13:17:56.703Z,97871.78
2022-10-13T13:20:26.975Z,97866.50
2022-10-13T13:22:55.605Z,97858.72
2022-10-13T13:25:24.138Z,97859.78
2022-10-13T13:27:54.204Z,97860.63
2022-10-13T13:30:25.374Z,97854.88
2022-10-13T13:32:53.710Z,97851.16
2022-10-13T13:35:22.065Z,97851.78
2022-10-13T13:37:52.907Z,97847.03
2022-10-13T13:40:24.073Z,97851.41
2022-10-13T13:42:52.675Z,97849.97
2022-10-13T13:45:24.898Z,97849.78
2022-10-13T13:47:56.748Z,97848.34
2022-10-13T13:50:33.693Z,97834.72
2022-10-13T13:53:02.354Z,97840.53
2022-10-13T13:55:30.787Z,97840.34
2022-10-13T13:57:59.872Z,97830.19
2022-10-13T14:00:29.518Z,97832.88
2022-10-13T14:02:58.681Z,97831.25
2022-10-13T14:05:27.013Z,97827.50
2022-10-13T14:07:57.653Z,97823.75
2022-10-13T14:10:27.032Z,97823.13
2022-10-13T14:12:55.363Z,97833.69
2022-10-13T14:15:28.850Z,97827.28
2022-10-13T14:17:59.538Z,97831.81
2022-10-13T14:20:27.774Z,97818.19
2022-10-13T14:22:56.089Z,97827.72
2022-10-13T14:25:24.858Z,97824.81
2022-10-13T14:27:53.500Z,97831.03
2022-10-13T14:30:21.710Z,97828.34
2022-10-13T14:32:49.950Z,97827.31
2022-10-13T14:35:19.726Z,97822.78
2022-10-13T14:37:47.965Z,97829.81
2022-10-13T14:40:16.255Z,97825.28
2022-10-13T14:42:44.559Z,97826.13
2022-10-13T14:45:13.380Z,97827.97
2022-10-13T14:47:41.688Z,97828.81
2022-10-13T14:50:11.177Z,97821.75
2022-10-13T14:52:40.862Z,97823.63
2022-10-13T14:55:10.451Z,97829.81
2022-10-13T14:57:38.752Z,97824.63
2022-10-13T15:00:08.383Z,97826.31
2022-10-13T15:02:36.748Z,97822.78
2022-10-13T15:05:05.916Z,97829.00
2022-10-13T15:07:37.839Z,97823.81
2022-10-13T15:10:10.871Z,97822.78
2022-10-13T15:12:39.183Z,97823.63
2022-10-13T15:15:08.411Z,97819.66
2022-10-13T15:17:37.227Z,97825.03
2022-10-13T15:20:07.366Z,97820.03
2022-10-13T15:22:35.722Z,97820.03
2022-10-13T15:25:07.711Z,97807.63
2022-10-13T15:27:41.808Z,97815.91
2022-10-13T15:30:11.967Z,97805.34
2022-10-13T15:32:40.253Z,97811.75
2022-10-13T15:35:09.653Z,97813.81
2022-10-13T15:37:37.998Z,97812.97
2022-10-13T15:40:07.655Z,97811.50
2022-10-13T15:42:37.255Z,97815.22
2022-10-13T15:45:11.214Z,97804.03
2022-10-13T15:47:40.156Z,97806.91
2022-10-13T15:50:10.020Z,97817.25
2022-10-13T15:52:40.183Z,97821.97
2022-10-13T15:55:09.978Z,97821.53
2022-10-13T15:57:40.143Z,97813.84
2022-10-13T16:00:10.505Z,97809.88
2022-10-13T16:02:38.735Z,97821.84
2022-10-13T16:05:08.836Z,97815.19
2022-10-13T16:07:37.510Z,97816.63
2022-10-13T16:10:06.512Z,97816.56
2022-10-13T16:12:34.936Z,97814.06
2022-10-13T16:15:04.783Z,97824.19
2022-10-13T16:17:33.059Z,97824.75
2022-10-13T16:20:01.471Z,97817.09
2022-10-13T16:22:29.720Z,97811.28
2022-10-13T16:24:57.957Z,97813.53
2022-10-13T16:27:26.167Z,97796.97
2022-10-13T16:29:54.453Z,97798.59
2022-10-13T16:32:24.071Z,97812.59
2022-10-13T16:34:52.343Z,97814.63
2022-10-13T16:37:20.901Z,97812.50
2022-10-13T16:39:51.878Z,97815.97
2022-10-13T16:42:20.442Z,97820.66
2022-10-13T16:44:48.707Z,97823.75
2022-10-13T16:47:18.642Z,97824.13
2022-10-13T16:49:48.457Z,97823.03
2022-10-13T16:52:16.735Z,97833.97
2022-10-13T16:54:44.980Z,97823.75
2022-10-13T16:57:13.280Z,97824.16
2022-10-13T16:59:41.838Z,97819.16
2022-10-13T17:02:15.517Z,97820.38
2022-10-13T17:04:44.138Z,97828.63
2022-10-13T17:07:14.523Z,97820.09
2022-10-13T17:09:42.968Z,97818.84
2022-10-13T17:12:11.248Z,97823.53
2022-10-13T17:14:39.762Z,97815.88
2022-10-13T17:17:08.064Z,97822.44
2022-10-13T17:19:37.544Z,97823.66
2022-10-13T17:22:05.775Z,97825.03
2022-10-13T17:24:35.370Z,97836.16
2022-10-13T17:27:03.613Z,97835.53
2022-10-13T17:29:32.114Z,97833.03
2022-10-13T17:32:01.438Z,97841.25
2022-10-13T17:34:29.730Z,97843.66
2022-10-13T17:36:59.267Z,97842.00
2022-10-13T17:39:27.523Z,97837.84
2022-10-13T17:41:57.182Z,97840.72
2022-10-13T17:44:25.409Z,97830.38
2022-10-13T17:46:53.671Z,97831.56
2022-10-13T17:49:21.979Z,97833.44
2022-10-13T17:51:53.949Z,97827.59
2022-10-13T17:54:22.599Z,97828.63
2022-10-13T17:56:51.725Z,97832.47
2022-10-13T17:59:21.332Z,97834.53
2022-10-13T18:01:49.639Z,97835.72
2022-10-13T18:04:20.392Z,97828.06
2022-10-13T18:06:48.755Z,97840.63
2022-10-13T18:09:19.870Z,97839.13
2022-10-13T18:11:51.341Z,97836.84
2022-10-13T18:14:22.827Z,97834.34
2022-10-13T18:16:52.095Z,97832.69
2022-10-13T18:19:21.334Z,97833.72
2022-10-13T18:21:50.167Z,97835.53
2022-10-13T18:24:18.467Z,97828.69
2022-10-13T18:26:47.756Z,97832.34
2022-10-13T18:29:16.032Z,97826.38
2022-10-13T18:31:45.718Z,97823.88
2022-10-13T18:34:16.969Z,97825.91
2022-10-13T18:36:48.097Z,97821.75
2022-10-13T18:39:20.871Z,97816.75
2022-10-13T18:41:49.983Z,97815.13
2022-10-13T18:44:18.869Z,97826.00
2022-10-13T18:46:51.086Z,97818.16
2022-10-13T18:49:23.024Z,97819.34
2022-10-13T18:51:52.563Z,97806.31
2022-10-13T18:54:20.893Z,97812.03
2022-10-13T18:56:49.093Z,97817.75
2022-10-13T18:59:17.717Z,97808.63
2022-10-13T19:01:47.586Z,97812.69
2022-10-13T19:04:16.920Z,97809.06
2022-10-13T19:06:46.449Z,97816.81
2022-10-13T19:09:17.431Z,97813.22
2022-10-13T19:11:45.844Z,97808.59
2022-10-13T19:14:14.817Z,97817.16
2022-10-13T19:16:44.718Z,97805.50
2022-10-13T19:19:14.771Z,97807.03
2022-10-13T19:21:43.319Z,97811.09
2022-10-13T19:24:12.094Z,97811.44
2022-10-13T19:26:40.615Z,97803.09
2022-10-13T19:29:11.094Z,97801.81
2022-10-13T19:31:42.308Z,97799.66
2022-10-13T19:34:13.533Z,97801.03
2022-10-13T19:36:44.369Z,97800.56
2022-10-13T19:39:16.716Z,97796.59
2022-10-13T19:41:46.769Z,97805.59
2022-10-13T19:44:15.806Z,97796.28
2022-10-13T19:46:46.017Z,97797.47
2022-10-13T19:49:19.003Z,97803.19
2022-10-13T19:51:49.035Z,97800.84
2022-10-13T19:54:19.317Z,97799.53
2022-10-13T19:56:49.306Z,97804.59
2022-10-13T19:59:19.387Z,97795.06
2022-10-13T20:01:47.694Z,97796.44
2022-10-13T20:04:20.511Z,97796.16
2022-10-13T20:06:49.947Z,97804.34
2022-10-13T20:09:19.453Z,97802.19
2022-10-13T20:11:49.500Z,97807.06
2022-10-13T20:14:18.605Z,97799.22
2022-10-13T20:16:47.129Z,97800.41
2022-10-13T20:19:19.554Z,97802.59
2022-10-13T20:21:48.571Z,97793.91
2022-10-13T20:24:16.910Z,97795.09
2022-10-13T20:26:45.170Z,97789.91
2022-10-13T20:29:13.501Z,97793.59
2022-10-13T20:31:42.407Z,97787.78
2022-10-13T20:34:12.131Z,97787.06
2022-10-13T20:36:42.279Z,97792.59
2022-10-13T20:39:10.570Z,97798.94
2022-10-13T20:41:38.945Z,97794.63
2022-10-13T20:44:07.254Z,97797.47
2022-10-13T20:46:35.628Z,97797.81
2022-10-13T20:49:13.142Z,97800.66
2022-10-13T20:51:43.906Z,97798.34
2022-10-13T20:54:13.832Z,97790.50
2022-10-13T20:56:42.814Z,97796.84
2022-10-13T20:59:14.562Z,97796.19
2022-10-13T21:01:43.154Z,97785.84
2022-10-13T21:04:11.437Z,97781.53
2022-10-13T21:06:40.117Z,97785.34
2022-10-13T21:09:10.190Z,97780.19
2022-10-13T21:11:39.641Z,97778.69
2022-10-13T21:14:09.643Z,97772.84
2022-10-13T21:16:38.902Z,97778.38
2022-10-13T21:19:08.290Z,97781.38
2022-10-13T21:21:37.697Z,97783.25
2022-10-13T21:24:09.725Z,97788.75
2022-10-13T21:26:38.980Z,97795.09
2022-10-13T21:29:07.546Z,97792.41
2022-10-13T21:31:36.445Z,97793.59
2022-10-13T21:34:05.012Z,97789.44
2022-10-13T21:36:34.527Z,97795.75
2022-10-13T21:39:06.212Z,97800.47
2022-10-13T21:41:35.882Z,97792.63
2022-10-13T21:44:05.157Z,97791.97
2022-10-13T21:46:35.283Z,97793.78
2022-10-13T21:49:05.810Z,97789.63
2022-10-13T21:51:36.259Z,97783.44
2022-10-13T21:54:07.549Z,97784.63
2022-10-13T21:56:37.643Z,97787.47
2022-10-13T21:59:06.717Z,97784.97
2022-10-13T22:01:35.489Z,97794.63
2022-10-13T22:04:04.098Z,97791.97
2022-10-13T22:06:34.377Z,97799.97
2022-10-13T22:09:05.390Z,97807.97
2022-10-13T22:11:38.264Z,97800.16
2022-10-13T22:14:07.865Z,97801.34
2022-10-13T22:16:39.634Z,97796.16
2022-10-13T22:19:08.290Z,97804.16
2022-10-13T22:21:44.745Z,97800.84
2022-10-13T22:24:16.625Z,97809.84
2022-10-13T22:26:48.351Z,97801.84
2022-10-13T22:29:21.281Z,97809.19
2022-10-13T22:31:49.953Z,97811.69
2022-10-13T22:34:19.033Z,97808.19
2022-10-13T22:36:47.356Z,97804.69
2022-10-13T22:39:16.314Z,97798.34
2022-10-13T22:41:46.106Z,97801.84
2022-10-13T22:44:14.887Z,97798.34
2022-10-13T22:46:43.163Z,97801.03
2022-10-13T22:49:13.330Z,97796.50
2022-10-13T22:51:41.553Z,97795.84
2022-10-13T22:54:11.163Z,97795.84
2022-10-13T22:56:39.418Z,97796.66
2022-10-13T22:59:10.474Z,97795.69
2022-10-13T23:01:38.676Z,97801.84
2022-10-13T23:04:07.233Z,97793.84
2022-10-13T23:06:36.636Z,97793.66
2022-10-13T23:09:07.574Z,97792.00
2022-10-13T23:11:36.493Z,97792.00
2022-10-13T23:14:05.305Z,97784.00
2022-10-13T23:16:35.590Z,97783.00
2022-10-13T23:19:04.361Z,97780.31
2022-10-13T23:21:32.745Z,97782.00
2022-10-13T23:24:03.689Z,97776.66
2022-10-13T23:26:33.210Z,97777.47
2022-10-13T23:29:01.877Z,97774.63
2022-10-13T23:31:30.457Z,97769.31
2022-10-13T23:34:00.400Z,97776.13
2022-10-13T23:36:31.256Z,97780.47
2022-10-13T23:39:01.642Z,97783.97
2022-10-13T23:41:30.635Z,97772.31
2022-10-13T23:43:58.968Z,97781.97
2022-10-13T23:46:27.761Z,97781.97
2022-10-13T23:48:56.200Z,97779.28
2022-10-13T23:51:27.311Z,97768.78
2022-10-13T23:53:56.167Z,97771.28
2022-10-13T23:56:24.974Z,97768.78
2022-10-13T23:58:53.242Z,97776.78
